Tupper Lake, NY

5:38 PM EDT on March 31, 2015 (GMT -0400)
The Wild Center | | Change Station
CLOSE
Current Station
Personal Weather Station
Location: Tupper Lake, NY
Elevation: 1640 ft
Nearby Weather Stations

Elev 1640 ft 44.22 °N, 74.44 °W | Updated 10 seconds ago

Clear
Clear
35.3 °F
Feels Like 35 °F
N
1.0
Wind Variable Wind from NNW
Gusts 9.0 mph

Today
High -- | Low -- °F
--% Chance of Precip.
Yesterday
High -- | Low -- °F
Precip. -- in
6:41 AM 7:23 PM
Waxing Gibbous, 89% visible
Pressure 29.75 in
Visibility 10.0 miles
Clouds Clear
Windchill 35 °F
Dew Point 8 °F
Humidity 32%
Rainfall 0.04 in
Snow Depth Not available.
UV 2 out of 12
Pollen .90 out of 12
Air Quality Not available.
Flu Activity Not available.
METAR KSLK 312051Z AUTO 01007KT 340V050 10SM CLR 01/M17 A2969 RMK AO2 SLP073 T00111172 53000

More Conditions Fewer Conditions

Pressure 29.75 in
Visibility 10.0 miles
Clouds Clear
Windchill 35 °F
Dew Point 8 °F
Humidity 32%
Rainfall 0.04 in
Snow Depth Not available.
UV 2 out of 12
Pollen .90 out of 12
Air Quality Not available.
Flu Activity Not available.
METAR KSLK 312051Z AUTO 01007KT 340V050 10SM CLR 01/M17 A2969 RMK AO2 SLP073 T00111172 53000

More Conditions Fewer Conditions

10-Day Weather Forecast

Almanac

Astronomy

Mar. 31, 2015 Rise Set
Actual Time
Civil Twilight
Nautical Twilight
Astronomical Twilight
Moon
Length of Visible Light
Length of Day
Tomorrow will be .
, % of the Moon is Illuminated

Today's Extremes

State Highs State Lows

Community

WunderPhotos

Upload Photos

1,809,842 photos uploaded!

WunderBlogs® & News

Nearby

Air Quality

  Air Quality AQ Index Pollutant
Not available.

Snow Depth

Station Depth Elevation

Earthquake Activity

City Distance Mag. Time & Date
Minimum magnitude displayed is 2.5.

Coastal Water Temperatures

Place Temperature

Stations

Nearby Weather Stations

Station Location Temp. Windchill Dew Point Humidity Wind Precip. Elev Updated Type